Time;durP1;ratioP1;P1;durP2;ratioP2;P2;SDS_P1;SDS_P2;PMS_P1;PMS_P2;Temp;Humidity;BMP_temperature;BMP_pressure;BME280_temperature;BME280_humidity;BME280_pressure;Samples;Min_cycle;Max_cycle;Signal;HPM_P1;HPM_P2
2022/12/07 00:01:20;;;;;;;60.13;40.30;;;4.60;99.90;;;;;;5041532;28;20322;-66
2022/12/07 00:03:48;;;;;;;58.03;38.13;;;4.60;99.90;;;;;;5047920;28;20260;-66
2022/12/07 00:06:17;;;;;;;59.80;38.50;;;4.60;99.90;;;;;;5048772;28;20227;-65
2022/12/07 00:08:45;;;;;;;56.63;38.03;;;4.60;99.90;;;;;;5050750;28;20219;-66
2022/12/07 00:11:14;;;;;;;54.17;36.90;;;4.60;99.90;;;;;;5043126;28;20191;-66
2022/12/07 00:13:42;;;;;;;56.00;37.43;;;4.60;99.90;;;;;;5060720;28;20274;-67
2022/12/07 00:16:12;;;;;;;57.40;36.57;;;4.60;99.90;;;;;;5049037;28;20650;-67
2022/12/07 00:18:40;;;;;;;53.23;35.10;;;4.60;99.90;;;;;;5058026;28;20200;-67
2022/12/07 00:21:10;;;;;;;53.83;36.17;;;4.60;99.90;;;;;;5042680;28;20207;-67
2022/12/07 00:23:38;;;;;;;61.63;38.23;;;4.60;99.90;;;;;;5058883;28;20209;-68
2022/12/07 00:26:11;;;;;;;54.17;36.77;;;4.60;99.90;;;;;;5041790;28;20610;-67
2022/12/07 00:28:38;;;;;;;56.20;38.07;;;4.60;99.90;;;;;;5059800;28;20204;-67
2022/12/07 00:31:11;;;;;;;63.10;39.73;;;4.60;99.90;;;;;;5041770;28;20240;-67
2022/12/07 00:33:38;;;;;;;58.43;37.17;;;4.60;99.90;;;;;;5056462;28;20562;-67
2022/12/07 00:36:09;;;;;;;55.73;36.07;;;4.60;99.90;;;;;;5042250;28;20194;-71
2022/12/07 00:38:37;;;;;;;48.73;34.17;;;4.60;99.90;;;;;;5058047;28;20199;-67
2022/12/07 00:41:16;;;;;;;53.30;33.40;;;4.60;99.90;;;;;;5058953;28;20215;-66
2022/12/07 00:43:45;;;;;;;51.40;34.77;;;4.60;99.90;;;;;;5059256;28;20195;-68
2022/12/07 00:46:13;;;;;;;47.63;33.17;;;4.60;99.90;;;;;;5042031;28;20226;-66
2022/12/07 00:48:41;;;;;;;44.73;32.67;;;4.60;99.90;;;;;;5059868;28;20669;-67
2022/12/07 00:51:09;;;;;;;49.20;32.37;;;4.60;99.90;;;;;;5049342;28;20278;-66
2022/12/07 00:53:37;;;;;;;46.80;32.57;;;4.70;27.40;;;;;;5058442;28;20203;-66
2022/12/07 00:56:10;;;;;;;43.53;30.97;;;4.70;1.00;;;;;;5058968;28;20654;-66
2022/12/07 00:58:37;;;;;;;46.10;31.80;;;4.70;1.00;;;;;;5057615;28;20199;-67
2022/12/07 01:01:07;;;;;;;48.37;31.00;;;4.70;1.00;;;;;;5058799;28;20245;-66
2022/12/07 01:03:35;;;;;;;45.77;30.40;;;4.70;1.00;;;;;;5050266;28;20227;-66
2022/12/07 01:06:03;;;;;;;43.70;29.87;;;4.70;1.00;;;;;;5044225;28;20622;-70
2022/12/07 01:08:30;;;;;;;44.87;29.40;;;4.70;1.00;;;;;;5059775;28;20214;-67
2022/12/07 01:11:06;;;;;;;46.03;29.20;;;4.70;1.00;;;;;;5058277;28;20250;-67
2022/12/07 01:13:34;;;;;;;45.13;29.63;;;4.70;1.00;;;;;;5059010;28;20638;-66
2022/12/07 01:16:04;;;;;;;44.33;28.63;;;4.70;1.00;;;;;;5029509;28;20725;-66
2022/12/07 01:18:34;;;;;;;43.60;29.40;;;4.70;1.00;;;;;;5057906;28;20195;-66
2022/12/07 01:21:05;;;;;;;41.80;29.47;;;4.70;1.00;;;;;;5041347;28;20265;-66
2022/12/07 01:23:34;;;;;;;42.93;28.97;;;4.80;1.00;;;;;;5057681;28;20203;-66
2022/12/07 01:26:04;;;;;;;43.83;28.27;;;4.70;1.00;;;;;;5039666;28;20290;-67
2022/12/07 01:28:31;;;;;;;38.67;29.40;;;4.70;1.00;;;;;;5039177;28;20539;-66
2022/12/07 01:31:04;;;;;;;43.60;29.00;;;4.70;1.00;;;;;;5040723;28;20626;-67
2022/12/07 01:33:34;;;;;;;39.60;28.60;;;4.70;1.00;;;;;;5060603;28;20228;-66
2022/12/07 01:36:21;;;;;;;40.83;28.33;;;4.70;1.00;;;;;;5040663;28;20204;-70
2022/12/07 01:38:52;;;;;;;45.50;28.77;;;4.70;1.00;;;;;;5057504;28;22094;-68
2022/12/07 01:41:20;;;;;;;38.43;26.90;;;4.70;1.00;;;;;;5029236;28;20219;-66
2022/12/07 01:44:22;;;;;;;40.57;27.47;;;4.70;1.00;;;;;;5056752;28;20203;-66
2022/12/07 01:46:56;;;;;;;47.13;28.10;;;4.70;1.00;;;;;;5057460;28;20244;-68
2022/12/07 01:49:33;;;;;;;42.93;29.10;;;4.70;1.00;;;;;;5041433;28;20220;-66
2022/12/07 01:52:22;;;;;;;39.23;27.50;;;4.70;1.00;;;;;;5047418;28;20617;-66
2022/12/07 01:54:52;;;;;;;40.13;27.67;;;4.70;1.00;;;;;;5055727;28;20209;-66
2022/12/07 01:57:20;;;;;;;43.57;28.57;;;4.70;1.00;;;;;;5058774;28;20218;-67
2022/12/07 01:59:50;;;;;;;40.03;26.60;;;4.70;1.00;;;;;;5057876;28;20285;-68
2022/12/07 02:02:26;;;;;;;37.60;26.83;;;4.70;1.00;;;;;;5030581;28;20231;-62
2022/12/07 02:04:55;;;;;;;38.63;25.07;;;4.70;1.00;;;;;;5056087;28;20260;-66
2022/12/07 02:07:23;;;;;;;36.03;25.23;;;4.70;1.00;;;;;;5059919;28;20273;-63
2022/12/07 02:09:50;;;;;;;38.87;26.27;;;4.70;1.00;;;;;;5062486;28;20623;-64
2022/12/07 02:12:18;;;;;;;39.23;28.17;;;4.70;1.00;;;;;;5058866;28;20707;-63
2022/12/07 02:14:45;;;;;;;37.80;26.63;;;4.80;1.00;;;;;;5050996;28;20610;-63
2022/12/07 02:17:17;;;;;;;38.87;26.17;;;4.70;1.00;;;;;;5043827;28;20290;-62
2022/12/07 02:20:11;;;;;;;36.07;24.20;;;4.80;1.00;;;;;;5061017;28;20204;-63
2022/12/07 02:22:53;;;;;;;36.17;25.40;;;4.70;1.00;;;;;;5034973;28;20203;-64
2022/12/07 02:25:26;;;;;;;35.83;24.27;;;4.70;1.00;;;;;;5061588;28;20230;-63
2022/12/07 02:28:18;;;;;;;36.97;23.80;;;4.70;1.00;;;;;;5060732;28;20224;-63
2022/12/07 02:30:48;;;;;;;34.20;23.57;;;4.70;1.00;;;;;;5062359;28;20191;-63
2022/12/07 02:34:03;;;;;;;42.93;25.90;;;4.70;99.90;;;;;;5061724;28;20193;-62
2022/12/07 02:36:36;;;;;;;37.03;24.40;;;4.70;99.90;;;;;;5017977;28;20201;-63
2022/12/07 02:39:16;;;;;;;34.03;23.90;;;4.70;99.90;;;;;;5040708;28;20253;-63
2022/12/07 02:41:50;;;;;;;34.23;24.43;;;4.70;99.90;;;;;;5044933;28;20622;-63
2022/12/07 02:44:20;;;;;;;38.33;23.40;;;4.70;99.90;;;;;;5058462;28;20199;-64
2022/12/07 02:46:58;;;;;;;38.40;23.87;;;4.70;99.90;;;;;;5042514;28;20301;-63
2022/12/07 02:49:27;;;;;;;33.43;23.77;;;4.70;99.90;;;;;;5060925;28;20261;-62
2022/12/07 02:51:55;;;;;;;37.47;24.97;;;4.60;99.90;;;;;;5058094;28;20195;-62
2022/12/07 02:54:22;;;;;;;40.00;24.47;;;4.60;99.90;;;;;;5041883;28;20290;-63
2022/12/07 02:57:24;;;;;;;31.97;23.10;;;4.60;99.90;;;;;;5050807;28;20605;-63
2022/12/07 03:00:13;;;;;;;34.77;23.53;;;4.50;99.90;;;;;;5061534;28;20190;-64
2022/12/07 03:02:55;;;;;;;36.77;23.87;;;4.40;99.90;;;;;;5042454;28;20192;-63
2022/12/07 03:05:37;;;;;;;34.90;24.33;;;4.20;99.90;;;;;;5039820;28;20286;-63
2022/12/07 03:08:10;;;;;;;33.63;23.10;;;4.20;99.90;;;;;;5058729;28;20245;-62
2022/12/07 03:10:48;;;;;;;39.07;22.67;;;4.10;99.90;;;;;;5060090;28;20188;-63
2022/12/07 03:13:37;;;;;;;33.30;22.47;;;4.00;1.00;;;;;;5060031;28;20186;-63
2022/12/07 03:16:39;;;;;;;36.97;23.27;;;3.90;1.00;;;;;;5061035;28;20187;-64
2022/12/07 03:19:27;;;;;;;32.57;21.40;;;3.90;1.00;;;;;;5057887;28;21184;-63
2022/12/07 03:21:58;;;;;;;34.33;23.20;;;3.90;1.00;;;;;;5049644;28;20223;-64
2022/12/07 03:24:28;;;;;;;33.83;22.90;;;3.80;1.00;;;;;;5043308;28;20591;-64
2022/12/07 03:27:03;;;;;;;33.93;22.07;;;3.70;1.00;;;;;;5061402;28;20511;-64
2022/12/07 03:29:55;;;;;;;35.47;22.80;;;3.60;1.00;;;;;;5059750;28;20210;-64
2022/12/07 03:32:29;;;;;;;40.20;24.10;;;3.60;1.00;;;;;;5051633;28;20199;-64
2022/12/07 03:35:17;;;;;;;41.00;25.20;;;3.50;1.00;;;;;;5059670;28;20195;-63
2022/12/07 03:38:22;;;;;;;39.80;24.27;;;3.50;3.20;;;;;;5059264;28;20191;-65
2022/12/07 03:41:04;;;;;;;39.20;23.27;;;3.50;99.90;;;;;;5059507;28;20600;-65
2022/12/07 03:43:31;;;;;;;32.77;23.13;;;3.50;99.90;;;;;;5059736;28;20203;-64
2022/12/07 03:46:33;;;;;;;37.23;22.40;;;3.40;99.90;;;;;;5054139;28;21324;-63
2022/12/07 03:49:06;;;;;;;39.03;23.73;;;3.30;99.90;;;;;;5035250;28;20206;-62
2022/12/07 03:52:00;;;;;;;40.70;25.00;;;3.20;99.90;;;;;;5061272;28;20214;-61
2022/12/07 03:54:50;;;;;;;45.37;24.57;;;3.20;99.90;;;;;;5056640;28;20237;-63
2022/12/07 03:57:18;;;;;;;36.87;23.93;;;3.10;99.90;;;;;;5060506;28;20198;-62
2022/12/07 03:59:46;;;;;;;40.63;26.13;;;3.10;99.90;;;;;;5059113;28;20195;-62
2022/12/07 04:02:14;;;;;;;40.20;25.90;;;3.10;1.00;;;;;;5058688;28;20200;-62
2022/12/07 04:04:42;;;;;;;45.70;28.63;;;3.10;1.00;;;;;;5059171;28;20268;-62
2022/12/07 04:07:09;;;;;;;42.00;28.30;;;3.20;1.00;;;;;;5058173;28;20318;-67
2022/12/07 04:09:36;;;;;;;48.00;29.20;;;3.30;1.00;;;;;;5048358;28;21454;-62
2022/12/07 04:12:04;;;;;;;47.67;28.20;;;3.30;1.00;;;;;;5057626;28;20199;-65
2022/12/07 04:14:30;;;;;;;46.17;28.43;;;3.20;1.00;;;;;;5051681;28;20275;-64
2022/12/07 04:16:58;;;;;;;37.33;24.67;;;3.10;1.00;;;;;;5041453;28;20663;-62
2022/12/07 04:19:28;;;;;;;45.40;27.70;;;3.10;1.00;;;;;;5055127;28;20198;-62
2022/12/07 04:21:56;;;;;;;44.30;27.80;;;3.10;1.00;;;;;;5049226;28;20204;-62
2022/12/07 04:24:24;;;;;;;42.93;27.07;;;3.00;1.00;;;;;;5058906;28;20254;-62
2022/12/07 04:26:51;;;;;;;43.87;27.47;;;3.00;1.00;;;;;;5059728;28;20214;-63
2022/12/07 04:29:19;;;;;;;43.40;27.27;;;3.00;1.00;;;;;;5047619;28;21015;-62
2022/12/07 04:31:46;;;;;;;49.30;29.40;;;3.00;1.00;;;;;;5058948;28;20280;-61
2022/12/07 04:34:14;;;;;;;40.50;27.57;;;2.90;1.00;;;;;;5049504;28;20195;-62
2022/12/07 04:36:42;;;;;;;47.37;27.20;;;2.90;10.10;;;;;;5051517;28;20258;-62
2022/12/07 04:39:32;;;;;;;44.60;28.30;;;2.90;49.00;;;;;;5055867;28;20218;-62
2022/12/07 04:42:00;;;;;;;43.33;27.67;;;2.80;35.70;;;;;;5052992;28;20191;-62
2022/12/07 04:44:30;;;;;;;49.20;27.97;;;2.80;96.20;;;;;;5058056;28;20218;-63
2022/12/07 04:46:56;;;;;;;50.83;29.23;;;2.80;99.90;;;;;;5041128;28;20202;-64
2022/12/07 04:49:25;;;;;;;61.63;34.87;;;2.70;99.90;;;;;;5059644;28;20582;-64
2022/12/07 04:51:52;;;;;;;46.60;27.77;;;2.70;99.90;;;;;;5039573;28;20206;-63
2022/12/07 04:54:19;;;;;;;49.23;28.63;;;2.70;99.90;;;;;;5057552;28;20195;-63
2022/12/07 04:56:46;;;;;;;48.70;28.00;;;2.70;99.90;;;;;;5057601;28;20187;-63
2022/12/07 04:59:15;;;;;;;47.37;28.70;;;2.70;99.90;;;;;;5051572;28;21108;-63
2022/12/07 05:01:43;;;;;;;45.40;27.57;;;2.70;99.90;;;;;;5057142;28;20682;-63
2022/12/07 05:04:10;;;;;;;50.47;28.70;;;2.70;99.90;;;;;;5062420;28;20272;-62
2022/12/07 05:06:37;;;;;;;52.27;27.47;;;2.70;99.90;;;;;;5061416;28;20251;-62
2022/12/07 05:09:05;;;;;;;52.93;27.37;;;2.70;99.90;;;;;;5060211;28;20195;-63
2022/12/07 05:11:37;;;;;;;48.30;29.30;;;2.50;99.90;;;;;;5034820;28;20816;-62
2022/12/07 05:14:22;;;;;;;50.53;28.57;;;2.50;99.90;;;;;;5056823;28;20573;-62
2022/12/07 05:16:51;;;;;;;50.13;27.70;;;2.50;99.90;;;;;;5059762;28;20191;-62
2022/12/07 05:19:19;;;;;;;45.87;26.67;;;2.60;1.00;;;;;;5059678;28;20191;-62
2022/12/07 05:21:46;;;;;;;49.67;27.57;;;2.70;1.00;;;;;;5059590;28;20278;-62
2022/12/07 05:24:15;;;;;;;47.10;28.23;;;2.70;1.00;;;;;;5059215;28;20209;-63
2022/12/07 05:26:43;;;;;;;47.60;28.60;;;2.70;1.00;;;;;;5059718;28;20573;-62
2022/12/07 05:29:13;;;;;;;51.50;27.87;;;2.70;1.00;;;;;;5042082;28;20218;-63
2022/12/07 05:31:40;;;;;;;50.77;29.10;;;2.70;1.00;;;;;;5058785;28;20241;-61
2022/12/07 05:34:07;;;;;;;47.83;29.70;;;2.80;1.00;;;;;;5055167;28;20266;-62
2022/12/07 05:36:34;;;;;;;48.13;29.67;;;2.90;1.00;;;;;;5041245;28;20213;-63
2022/12/07 05:39:01;;;;;;;53.63;30.07;;;2.90;1.00;;;;;;5040949;28;20245;-61
2022/12/07 05:44:13;;;;;;;50.33;29.30;;;2.90;1.00;;;;;;5056875;28;20827;-62
2022/12/07 05:46:40;;;;;;;45.57;28.63;;;2.90;10.70;;;;;;5059468;28;20195;-61
2022/12/07 05:49:07;;;;;;;46.23;29.57;;;3.00;50.50;;;;;;5040410;28;20210;-65
2022/12/07 05:51:34;;;;;;;56.10;28.33;;;3.00;78.60;;;;;;5049212;28;20283;-62
2022/12/07 05:54:01;;;;;;;56.83;30.53;;;3.00;94.30;;;;;;5047923;28;20669;-62
2022/12/07 05:56:28;;;;;;;50.60;27.90;;;3.00;99.90;;;;;;5056890;28;20617;-61
2022/12/07 06:01:41;;;;;;;48.50;29.83;;;2.90;89.20;;;;;;5058801;28;20198;-62
2022/12/07 06:04:08;;;;;;;53.83;31.00;;;3.00;99.90;;;;;;5057622;28;20223;-61
2022/12/07 06:06:35;;;;;;;62.07;31.53;;;3.00;99.90;;;;;;5049462;28;20297;-62
2022/12/07 06:09:03;;;;;;;54.27;27.33;;;3.00;99.90;;;;;;5050715;28;20202;-63
2022/12/07 06:14:15;;;;;;;48.63;27.07;;;3.10;99.90;;;;;;5055989;28;20205;-61
2022/12/07 06:16:42;;;;;;;44.90;27.23;;;3.10;99.40;;;;;;5058820;28;20198;-63
2022/12/07 06:19:09;;;;;;;46.10;25.33;;;3.10;92.80;;;;;;5048265;28;20203;-62
2022/12/07 06:21:37;;;;;;;46.90;24.87;;;3.10;64.60;;;;;;5059980;28;20553;-62
2022/12/07 06:24:04;;;;;;;41.83;25.87;;;3.10;38.50;;;;;;5047489;28;20666;-62
2022/12/07 06:26:31;;;;;;;51.07;24.77;;;3.20;12.40;;;;;;5047693;28;20284;-62
2022/12/07 06:28:58;;;;;;;41.83;23.87;;;3.20;1.00;;;;;;5059270;28;20211;-62
2022/12/07 06:31:25;;;;;;;44.80;23.87;;;3.20;1.00;;;;;;5040999;28;20198;-63
2022/12/07 06:34:01;;;;;;;39.00;23.53;;;3.20;1.00;;;;;;5042659;28;20708;-62
2022/12/07 06:36:28;;;;;;;42.93;24.17;;;3.20;1.00;;;;;;5048851;28;20199;-61
2022/12/07 06:38:55;;;;;;;40.90;22.60;;;3.30;1.00;;;;;;5058737;28;20230;-62
2022/12/07 06:41:23;;;;;;;40.87;22.57;;;3.30;1.00;;;;;;5039928;28;20202;-61
2022/12/07 06:43:50;;;;;;;37.43;22.53;;;3.30;1.00;;;;;;5056225;28;20395;-65
2022/12/07 06:46:22;;;;;;;37.67;21.30;;;3.20;99.90;;;;;;5041774;28;20223;-65
2022/12/07 06:48:50;;;;;;;40.50;23.47;;;3.20;99.90;;;;;;5055985;28;20184;-62
2022/12/07 06:51:17;;;;;;;39.93;23.33;;;3.20;99.90;;;;;;5037976;28;20235;-64
2022/12/07 06:53:44;;;;;;;40.40;23.43;;;3.10;85.70;;;;;;5062970;28;20270;-62
2022/12/07 06:56:11;;;;;;;39.13;23.33;;;3.10;1.00;;;;;;5063459;28;20219;-61
2022/12/07 06:58:39;;;;;;;48.67;23.60;;;3.20;1.00;;;;;;5059359;28;20203;-62
2022/12/07 07:01:15;;;;;;;40.67;23.27;;;3.20;1.00;;;;;;5060737;28;20191;-63
2022/12/07 07:03:42;;;;;;;46.60;25.40;;;3.30;1.00;;;;;;5061527;28;20210;-61
2022/12/07 07:06:10;;;;;;;41.67;24.47;;;3.20;1.00;;;;;;5059109;28;20720;-62
2022/12/07 07:08:39;;;;;;;42.17;22.87;;;3.10;1.00;;;;;;5034253;28;20298;-62
2022/12/07 07:11:07;;;;;;;45.17;24.13;;;2.90;99.90;;;;;;5052466;28;20210;-62
2022/12/07 07:13:34;;;;;;;37.43;22.43;;;2.80;99.90;;;;;;5059151;28;20188;-62
2022/12/07 07:16:01;;;;;;;41.27;23.93;;;2.80;1.00;;;;;;5061081;28;20187;-62
2022/12/07 07:18:28;;;;;;;38.43;23.73;;;2.80;1.00;;;;;;5051218;28;20353;-62
2022/12/07 07:20:55;;;;;;;41.53;23.27;;;2.90;1.00;;;;;;5063043;28;20237;-62
2022/12/07 07:23:23;;;;;;;42.50;24.20;;;2.90;1.00;;;;;;5042787;28;20210;-62
2022/12/07 07:25:50;;;;;;;43.43;25.17;;;2.90;1.00;;;;;;5061196;28;20197;-62
2022/12/07 07:28:17;;;;;;;48.03;25.37;;;2.90;1.00;;;;;;5044155;28;20252;-61
2022/12/07 07:30:44;;;;;;;45.30;25.27;;;2.90;1.00;;;;;;5059459;28;20294;-62
2022/12/07 07:33:12;;;;;;;45.67;25.30;;;2.90;1.00;;;;;;5050118;28;20180;-61
2022/12/07 07:35:39;;;;;;;45.43;24.63;;;2.90;1.00;;;;;;5061555;28;20678;-65
2022/12/07 07:38:07;;;;;;;45.60;25.60;;;2.90;1.00;;;;;;5059998;28;20195;-63
2022/12/07 07:40:34;;;;;;;45.40;26.40;;;3.00;1.00;;;;;;5061451;28;20215;-63
2022/12/07 07:43:01;;;;;;;47.97;25.17;;;2.90;1.00;;;;;;5059715;28;20214;-62
2022/12/07 07:45:28;;;;;;;42.77;24.87;;;2.90;1.00;;;;;;5049425;28;20192;-61
2022/12/07 07:47:55;;;;;;;44.03;25.27;;;2.80;1.00;;;;;;5043641;28;20190;-63
2022/12/07 07:50:22;;;;;;;46.63;25.83;;;2.80;1.00;;;;;;5042068;28;20740;-62
2022/12/07 07:52:51;;;;;;;45.13;26.33;;;2.80;1.00;;;;;;5051014;28;20270;-64
2022/12/07 07:55:21;;;;;;;41.13;24.77;;;2.70;1.00;;;;;;5057527;28;20610;-62
2022/12/07 07:57:48;;;;;;;49.17;27.53;;;2.70;1.00;;;;;;5042689;28;20594;-62
2022/12/07 08:00:21;;;;;;;43.47;26.47;;;2.80;1.00;;;;;;5050597;28;20199;-62
2022/12/07 08:02:48;;;;;;;43.77;25.57;;;2.80;1.00;;;;;;5041263;28;20195;-62
2022/12/07 08:05:15;;;;;;;44.00;25.00;;;2.90;1.00;;;;;;5057562;28;20307;-63
2022/12/07 08:07:43;;;;;;;49.00;26.10;;;2.80;1.00;;;;;;5041526;28;20198;-64
2022/12/07 08:10:12;;;;;;;42.63;25.83;;;2.80;1.00;;;;;;5049352;28;20203;-62
2022/12/07 08:15:29;;;;;;;41.87;25.17;;;2.80;99.90;;;;;;5060793;28;20203;-63
2022/12/07 08:17:57;;;;;;;42.37;24.80;;;2.90;1.00;;;;;;5056777;28;20191;-62
2022/12/07 08:20:24;;;;;;;43.70;24.93;;;3.10;1.00;;;;;;5058764;28;20218;-64
2022/12/07 08:22:51;;;;;;;46.87;25.53;;;3.10;99.90;;;;;;5056572;28;20697;-62
2022/12/07 08:25:18;;;;;;;44.20;27.10;;;3.20;99.90;;;;;;5042560;28;20294;-63
2022/12/07 08:27:46;;;;;;;46.77;25.83;;;3.50;99.90;;;;;;5031146;28;20199;-62
2022/12/07 08:30:13;;;;;;;40.17;24.17;;;3.70;1.00;;;;;;5060280;28;20203;-63
2022/12/07 08:32:40;;;;;;;45.00;24.40;;;3.80;1.00;;;;;;5042359;28;20203;-62
2022/12/07 08:35:08;;;;;;;38.83;24.83;;;3.90;99.90;;;;;;5056398;28;20195;-61
2022/12/07 08:37:35;;;;;;;31.90;22.67;;;4.10;1.00;;;;;;5057106;28;20827;-62
2022/12/07 08:40:04;;;;;;;34.47;22.67;;;4.20;1.00;;;;;;5033133;28;20438;-61
2022/12/07 08:42:37;;;;;;;30.80;21.83;;;4.40;1.00;;;;;;5059408;28;20290;-62
2022/12/07 08:45:10;;;;;;;35.63;22.40;;;4.60;1.00;;;;;;5057284;28;20306;-63
2022/12/07 08:47:41;;;;;;;35.60;21.97;;;4.70;99.90;;;;;;5041074;28;20553;-62
2022/12/07 08:50:11;;;;;;;49.00;32.07;;;5.10;99.90;;;;;;5048421;28;20249;-64
2022/12/07 08:52:39;;;;;;;40.37;26.97;;;5.20;99.90;;;;;;5055244;28;20210;-62
2022/12/07 08:55:07;;;;;;;28.17;21.27;;;5.20;99.90;;;;;;5047697;28;20183;-63
2022/12/07 08:57:35;;;;;;;26.93;17.60;;;5.10;99.90;;;;;;5046017;28;20912;-62
2022/12/07 09:00:04;;;;;;;27.37;15.33;;;4.90;99.90;;;;;;5056875;28;20387;-62
2022/12/07 09:02:31;;;;;;;19.83;15.23;;;4.80;99.90;;;;;;5038308;28;20721;-63
2022/12/07 09:04:58;;;;;;;20.67;14.00;;;4.50;93.70;;;;;;5040391;28;20333;-62
2022/12/07 09:07:26;;;;;;;20.77;13.73;;;4.30;91.10;;;;;;5042513;28;20557;-61
2022/12/07 09:09:53;;;;;;;23.10;14.07;;;4.30;99.90;;;;;;5032204;28;20223;-61
2022/12/07 09:12:20;;;;;;;28.57;14.10;;;4.40;99.40;;;;;;5040169;28;20194;-62
2022/12/07 09:14:47;;;;;;;24.83;14.50;;;4.40;91.20;;;;;;5039900;28;20314;-61
2022/12/07 09:17:14;;;;;;;26.57;16.67;;;6.60;10.40;;;;;;5038442;28;20195;-61
2022/12/07 09:19:42;;;;;;;17.87;11.43;;;10.50;1.00;;;;;;5058360;28;20199;-61
2022/12/07 09:22:09;;;;;;;14.53;8.53;;;12.40;1.00;;;;;;5046103;28;20226;-62
2022/12/07 09:24:36;;;;;;;10.03;6.83;;;14.00;1.00;;;;;;5055338;28;20202;-62
2022/12/07 09:27:03;;;;;;;11.20;6.57;;;15.10;1.00;;;;;;5040758;28;20276;-62
2022/12/07 09:29:30;;;;;;;14.30;9.17;;;15.60;1.00;;;;;;5041510;28;20237;-64
2022/12/07 09:31:57;;;;;;;8.35;6.05;;;16.20;1.00;;;;;;5047362;28;20819;-63
2022/12/07 09:34:26;;;;;;;7.57;5.50;;;17.10;1.00;;;;;;5048414;28;20209;-62
2022/12/07 09:36:53;;;;;;;11.82;5.72;;;17.50;1.00;;;;;;5039292;28;20179;-62
2022/12/07 09:39:20;;;;;;;9.93;5.18;;;18.90;1.00;;;;;;5052017;28;20702;-63
2022/12/07 09:41:47;;;;;;;8.30;5.07;;;18.10;1.00;;;;;;5051876;28;20198;-62
2022/12/07 09:44:25;;;;;;;12.35;5.93;;;17.90;1.00;;;;;;5037049;28;20218;-63
2022/12/07 09:46:53;;;;;;;9.13;5.35;;;19.50;1.00;;;;;;5035617;28;20277;-63
2022/12/07 09:49:23;;;;;;;7.28;4.70;;;20.00;1.00;;;;;;5054067;28;20278;-63
2022/12/07 09:52:27;;;;;;;9.15;4.95;;;19.90;1.00;;;;;;5033339;28;20331;-63
2022/12/07 09:54:56;;;;;;;9.73;5.43;;;19.40;1.00;;;;;;5019181;28;20202;-62
2022/12/07 09:57:35;;;;;;;6.45;5.03;;;16.90;1.00;;;;;;5055348;28;20273;-62
2022/12/07 10:00:10;;;;;;;9.18;5.32;;;13.90;1.00;;;;;;5042600;28;20214;-62
2022/12/07 10:02:45;;;;;;;10.02;6.25;;;11.40;1.00;;;;;;5055134;28;20194;-62
2022/12/07 10:05:16;;;;;;;12.93;6.83;;;10.10;1.00;;;;;;5054858;28;20258;-63
2022/12/07 10:07:50;;;;;;;10.73;7.20;;;9.20;1.00;;;;;;5053723;28;20210;-63
2022/12/07 10:10:31;;;;;;;13.13;7.00;;;8.40;1.00;;;;;;5054702;28;20211;-62
2022/12/07 10:13:18;;;;;;;16.67;7.93;;;7.80;1.00;;;;;;5058272;28;20188;-65
2022/12/07 10:15:49;;;;;;;11.43;6.63;;;7.30;1.00;;;;;;5046033;28;20709;-67
2022/12/07 10:18:37;;;;;;;12.20;10.00;;;7.20;1.00;;;;;;5048631;28;20252;-65
2022/12/07 10:21:12;;;;;;;14.37;7.83;;;7.20;1.00;;;;;;5040465;28;20226;-68
2022/12/07 10:23:58;;;;;;;13.57;7.23;;;6.80;1.00;;;;;;5047321;28;20191;-66
2022/12/07 10:26:28;;;;;;;17.00;7.90;;;7.10;1.00;;;;;;5042524;28;20218;-66
2022/12/07 10:28:59;;;;;;;11.13;8.10;;;7.10;1.00;;;;;;5036146;28;20203;-65
2022/12/07 10:31:26;;;;;;;11.20;7.33;;;7.10;1.00;;;;;;5059799;28;20299;-66
2022/12/07 10:34:01;;;;;;;15.80;8.27;;;7.20;1.00;;;;;;5045302;28;20198;-65
2022/12/07 10:36:37;;;;;;;16.03;9.93;;;7.20;1.00;;;;;;5060126;28;20194;-66
2022/12/07 10:39:14;;;;;;;12.07;7.40;;;7.30;1.00;;;;;;5044191;28;20229;-66
2022/12/07 10:41:59;;;;;;;12.77;8.00;;;7.50;1.00;;;;;;5049191;28;20233;-66
2022/12/07 10:44:29;;;;;;;12.43;7.93;;;9.40;1.00;;;;;;5038168;28;20725;-66
2022/12/07 10:47:14;;;;;;;9.47;6.50;;;10.80;1.00;;;;;;5042532;28;20342;-67
2022/12/07 10:50:15;;;;;;;9.30;5.80;;;12.70;1.00;;;;;;5060299;28;20657;-65
2022/12/07 10:52:56;;;;;;;10.23;5.67;;;11.40;1.00;;;;;;5061788;28;20195;-66
2022/12/07 10:55:45;;;;;;;8.30;5.33;;;11.10;1.00;;;;;;5059319;28;21063;-67
2022/12/07 10:58:51;;;;;;;14.60;6.60;;;10.30;1.00;;;;;;5058515;28;20192;-72
2022/12/07 11:01:29;;;;;;;9.73;5.63;;;9.30;1.00;;;;;;5006464;28;20198;-67
2022/12/07 11:04:17;;;;;;;11.80;5.80;;;8.90;1.00;;;;;;5043162;28;20227;-66
2022/12/07 11:06:50;;;;;;;9.33;5.80;;;8.40;1.00;;;;;;5058821;28;20238;-66
2022/12/07 11:09:58;;;;;;;9.63;4.37;;;8.40;1.00;;;;;;5060090;28;20196;-67
2022/12/07 11:12:55;;;;;;;7.17;3.43;;;10.80;1.00;;;;;;4983982;28;20649;-66
2022/12/07 11:15:41;;;;;;;7.37;4.23;;;13.80;1.00;;;;;;4982380;28;20205;-66
2022/12/07 11:18:12;;;;;;;10.40;4.00;;;15.60;1.00;;;;;;5048213;28;20211;-67
2022/12/07 11:20:44;;;;;;;8.17;3.80;;;13.40;1.00;;;;;;5052290;28;20252;-66
2022/12/07 11:23:42;;;;;;;7.93;4.33;;;12.40;1.00;;;;;;5061116;28;20282;-64
2022/12/07 11:26:37;;;;;;;12.73;4.37;;;11.40;1.00;;;;;;5057761;28;20199;-66
2022/12/07 11:29:23;;;;;;;14.10;4.00;;;10.20;1.00;;;;;;5055989;28;20187;-66
2022/12/07 11:31:59;;;;;;;11.53;4.70;;;9.30;1.00;;;;;;5055948;28;20269;-65
2022/12/07 11:34:40;;;;;;;8.43;4.20;;;8.90;1.00;;;;;;5032757;28;20210;-66
2022/12/07 11:37:13;;;;;;;8.10;5.30;;;8.50;1.00;;;;;;5041629;28;20187;-65
2022/12/07 11:39:58;;;;;;;9.77;3.47;;;7.90;1.00;;;;;;5057034;28;20197;-67
2022/12/07 11:42:30;;;;;;;7.50;3.60;;;7.70;1.00;;;;;;5058930;28;20187;-66
2022/12/07 11:45:09;;;;;;;8.80;3.80;;;7.40;1.00;;;;;;5055867;28;21209;-66
2022/12/07 11:47:48;;;;;;;9.33;3.30;;;7.30;1.00;;;;;;5060270;28;20191;-64
2022/12/07 11:50:26;;;;;;;7.33;3.50;;;7.20;1.00;;;;;;5025132;28;20199;-67
2022/12/07 11:53:14;;;;;;;5.77;3.23;;;7.30;1.00;;;;;;5042882;28;20297;-65
2022/12/07 11:55:46;;;;;;;8.73;3.90;;;7.30;1.00;;;;;;5059629;28;20198;-66
2022/12/07 11:58:47;;;;;;;7.93;4.20;;;7.10;1.00;;;;;;5046340;28;20207;-65
2022/12/07 12:01:17;;;;;;;9.37;4.50;;;7.20;1.00;;;;;;5045876;28;20195;-66
2022/12/07 12:04:12;;;;;;;10.40;4.60;;;7.30;1.00;;;;;;5056772;28;20254;-66
2022/12/07 12:06:40;;;;;;;10.33;3.60;;;7.20;1.00;;;;;;5010074;28;20227;-65
2022/12/07 12:09:33;;;;;;;11.87;4.40;;;6.90;1.00;;;;;;5059539;28;20866;-65
2022/12/07 12:12:16;;;;;;;8.50;3.63;;;6.90;1.00;;;;;;5059862;28;20310;-65
2022/12/07 12:15:06;;;;;;;8.17;4.03;;;6.80;1.00;;;;;;5059789;28;20191;-65
2022/12/07 12:17:45;;;;;;;12.07;4.33;;;6.80;1.00;;;;;;5061203;28;20646;-66
2022/12/07 12:20:43;;;;;;;13.60;4.53;;;6.80;1.00;;;;;;5048806;28;20272;-66
2022/12/07 12:23:43;;;;;;;13.17;5.87;;;6.80;1.00;;;;;;5047862;28;20193;-65
2022/12/07 12:26:27;;;;;;;13.63;5.53;;;7.10;1.00;;;;;;5039463;28;20794;-66
2022/12/07 12:29:23;;;;;;;7.37;3.87;;;7.20;1.00;;;;;;5047939;28;20203;-65
2022/12/07 12:32:05;;;;;;;15.40;4.67;;;7.20;1.00;;;;;;5054009;28;20254;-66
2022/12/07 12:34:40;;;;;;;9.90;4.17;;;7.70;1.00;;;;;;5059019;28;20274;-65
2022/12/07 12:37:34;;;;;;;8.37;3.23;;;7.50;1.00;;;;;;5046624;28;20190;-71
2022/12/07 12:40:16;;;;;;;7.60;3.73;;;7.10;1.00;;;;;;5058201;28;20253;-67
2022/12/07 12:42:51;;;;;;;10.13;4.37;;;6.90;1.00;;;;;;5049021;28;20204;-66
2022/12/07 12:45:27;;;;;;;10.60;3.73;;;6.80;1.00;;;;;;5041532;28;20243;-66
2022/12/07 12:48:24;;;;;;;13.90;3.03;;;6.70;1.00;;;;;;5042748;28;20270;-66
2022/12/07 12:51:29;;;;;;;6.50;3.70;;;6.50;1.00;;;;;;5058722;28;20219;-66
2022/12/07 12:54:14;;;;;;;7.73;3.87;;;6.60;1.00;;;;;;5028911;28;20210;-66
2022/12/07 12:56:45;;;;;;;11.10;4.27;;;6.70;1.00;;;;;;5039610;28;20194;-66
2022/12/07 12:59:23;;;;;;;9.27;3.30;;;6.70;1.00;;;;;;5061332;28;20195;-65
2022/12/07 13:01:54;;;;;;;7.50;3.20;;;6.50;1.00;;;;;;5039515;28;20196;-65
2022/12/07 13:04:27;;;;;;;13.63;4.10;;;6.30;1.00;;;;;;5046117;28;20227;-65
2022/12/07 13:06:54;;;;;;;9.80;4.47;;;6.20;1.00;;;;;;5057250;28;20257;-66
2022/12/07 13:09:29;;;;;;;9.63;4.50;;;6.20;1.00;;;;;;5057909;28;20273;-65
2022/12/07 13:12:03;;;;;;;9.43;6.17;;;6.40;1.00;;;;;;5054655;28;20851;-65
2022/12/07 13:14:41;;;;;;;9.97;4.30;;;6.60;1.00;;;;;;5040269;28;20233;-67
2022/12/07 13:17:32;;;;;;;11.67;4.60;;;6.70;1.00;;;;;;5046216;28;20730;-64
2022/12/07 13:20:04;;;;;;;8.13;3.87;;;6.80;1.00;;;;;;5013732;28;20571;-66
2022/12/07 13:22:31;;;;;;;11.10;5.17;;;6.70;1.00;;;;;;5056478;28;20207;-65
2022/12/07 13:25:17;;;;;;;15.73;6.87;;;6.70;1.00;;;;;;5055386;28;20323;-66
2022/12/07 13:28:07;;;;;;;13.53;6.67;;;6.60;1.00;;;;;;5045993;28;20195;-66
2022/12/07 13:30:50;;;;;;;15.20;10.00;;;6.50;1.00;;;;;;5038283;28;20221;-67
2022/12/07 13:33:18;;;;;;;9.33;5.60;;;6.50;1.00;;;;;;5055630;28;20190;-66